Time;durP1;ratioP1;P1;durP2;ratioP2;P2;SDS_P1;SDS_P2;PMS_P1;PMS_P2;Temp;Humidity;BMP_temperature;BMP_pressure;BME280_temperature;BME280_humidity;BME280_pressure;Samples;Min_cycle;Max_cycle;Signal;HPM_P1;HPM_P2
2022/03/09 10:37:01;;;;;;;12.13;2.97;;;10.20;94.90;;;;;;5069738;28;20427;-43
2022/03/09 10:39:28;;;;;;;18.90;3.70;;;10.10;95.40;;;;;;5050528;28;20116;-46
2022/03/09 10:41:58;;;;;;;17.58;4.10;;;10.10;95.10;;;;;;5050320;28;20037;-46
2022/03/09 10:44:25;;;;;;;15.10;3.70;;;10.20;95.00;;;;;;5052455;28;20476;-45
2022/03/09 10:46:52;;;;;;;20.88;3.50;;;10.20;95.00;;;;;;5050508;28;20049;-43
2022/03/09 10:49:19;;;;;;;17.73;3.60;;;10.30;94.80;;;;;;5050114;28;20045;-47
2022/03/09 10:51:46;;;;;;;20.17;3.50;;;10.30;95.20;;;;;;5055267;28;20408;-47
2022/03/09 10:54:16;;;;;;;10.70;2.97;;;10.40;93.70;;;;;;5050255;28;20037;-44
2022/03/09 10:56:43;;;;;;;15.20;3.13;;;10.50;93.70;;;;;;5048253;28;20052;-45
2022/03/09 10:59:10;;;;;;;14.57;3.10;;;10.50;93.10;;;;;;5049922;28;20075;-54
2022/03/09 11:01:37;;;;;;;18.90;4.30;;;10.50;93.20;;;;;;5050064;28;20128;-47
2022/03/09 11:04:04;;;;;;;20.23;3.42;;;10.50;93.20;;;;;;5055854;28;20049;-44
2022/03/09 11:06:31;;;;;;;18.10;3.67;;;10.50;93.60;;;;;;5049938;28;20037;-46
2022/03/09 11:08:59;;;;;;;15.38;3.30;;;10.70;93.80;;;;;;5050209;28;20041;-49
2022/03/09 11:11:25;;;;;;;16.88;3.60;;;10.80;93.00;;;;;;5049971;28;20465;-47
2022/03/09 11:13:53;;;;;;;16.48;3.72;;;10.90;93.30;;;;;;5049922;28;20485;-46
2022/03/09 11:16:19;;;;;;;13.90;3.30;;;11.00;93.50;;;;;;5049806;28;20060;-47
2022/03/09 11:18:47;;;;;;;23.92;3.75;;;11.20;93.10;;;;;;5049595;28;20116;-49
2022/03/09 11:21:16;;;;;;;16.17;3.60;;;11.30;93.20;;;;;;5049633;28;20353;-51
2022/03/09 11:23:43;;;;;;;11.43;3.53;;;11.40;92.70;;;;;;5049848;28;20374;-49
2022/03/09 11:26:10;;;;;;;17.08;3.35;;;11.40;92.30;;;;;;5049823;28;20116;-46
2022/03/09 11:28:37;;;;;;;11.25;3.40;;;11.40;92.10;;;;;;5049872;28;20042;-47
2022/03/09 11:31:04;;;;;;;19.35;3.90;;;11.40;92.20;;;;;;5049090;28;20049;-51
2022/03/09 11:33:31;;;;;;;15.52;3.30;;;11.40;92.20;;;;;;5052780;28;20052;-47
2022/03/09 11:35:58;;;;;;;10.48;3.33;;;11.40;92.30;;;;;;5049144;28;20050;-49
2022/03/09 11:38:24;;;;;;;13.73;3.22;;;11.30;91.80;;;;;;5048740;28;20389;-48
2022/03/09 11:40:51;;;;;;;16.73;3.38;;;11.30;91.90;;;;;;5049184;28;20041;-50
2022/03/09 11:43:18;;;;;;;12.48;3.05;;;11.40;91.50;;;;;;5049172;28;20044;-51
2022/03/09 11:45:45;;;;;;;11.88;3.13;;;11.40;91.40;;;;;;5049355;28;20500;-45
2022/03/09 11:48:14;;;;;;;13.90;3.20;;;11.40;91.70;;;;;;5037011;28;20046;-48
2022/03/09 11:50:41;;;;;;;16.35;3.35;;;11.40;91.30;;;;;;5037151;28;20033;-44
2022/03/09 11:53:08;;;;;;;9.07;2.60;;;11.40;91.00;;;;;;5035790;28;20148;-50
2022/03/09 11:55:35;;;;;;;15.48;3.03;;;11.40;91.10;;;;;;5035562;28;20041;-49
2022/03/09 11:58:02;;;;;;;13.50;3.05;;;11.40;91.10;;;;;;5035798;28;20417;-46
2022/03/09 12:00:29;;;;;;;11.95;3.00;;;11.50;91.40;;;;;;5035513;28;20050;-50
2022/03/09 12:02:56;;;;;;;15.13;3.28;;;11.50;90.60;;;;;;5035589;28;20431;-46
2022/03/09 12:05:23;;;;;;;11.80;3.28;;;11.60;90.30;;;;;;5037313;28;20386;-49
2022/03/09 12:07:50;;;;;;;13.55;3.30;;;11.60;90.50;;;;;;5038898;28;20044;-50
2022/03/09 12:10:17;;;;;;;13.82;3.15;;;11.60;90.70;;;;;;5035403;28;20120;-50
2022/03/09 12:12:44;;;;;;;10.60;2.80;;;11.60;90.40;;;;;;5035646;28;20052;-46
2022/03/09 12:15:12;;;;;;;13.32;3.00;;;11.60;90.60;;;;;;5035241;28;20526;-46
2022/03/09 12:17:39;;;;;;;18.88;3.38;;;11.70;90.30;;;;;;5035294;28;20049;-49
2022/03/09 12:20:06;;;;;;;19.00;2.85;;;11.70;90.20;;;;;;5035282;28;20045;-49
2022/03/09 12:22:33;;;;;;;12.77;2.90;;;11.70;90.40;;;;;;5033952;28;20041;-49
2022/03/09 12:24:59;;;;;;;12.35;2.45;;;11.80;90.50;;;;;;5035119;28;20034;-53
2022/03/09 12:27:26;;;;;;;21.67;4.15;;;11.90;89.90;;;;;;5035090;28;20091;-49
2022/03/09 12:29:53;;;;;;;10.93;2.90;;;11.90;89.20;;;;;;5034346;28;20491;-50
2022/03/09 12:32:22;;;;;;;13.73;2.85;;;11.90;88.70;;;;;;5034950;28;20041;-52
2022/03/09 12:34:49;;;;;;;9.05;2.13;;;12.00;88.80;;;;;;5033680;28;20037;-51
2022/03/09 12:37:16;;;;;;;13.45;3.05;;;12.00;89.40;;;;;;5038593;28;20139;-47
2022/03/09 12:39:43;;;;;;;15.05;2.67;;;12.00;89.60;;;;;;5034685;28;20497;-51
2022/03/09 12:42:10;;;;;;;7.28;2.20;;;12.00;88.80;;;;;;5034804;28;20555;-52
2022/03/09 12:44:37;;;;;;;13.13;2.50;;;12.10;89.10;;;;;;5035002;28;20065;-54
2022/03/09 12:47:03;;;;;;;13.77;3.28;;;12.10;89.90;;;;;;5034821;28;20041;-52
2022/03/09 12:49:30;;;;;;;8.65;2.80;;;12.10;89.60;;;;;;5034400;28;20046;-54
2022/03/09 12:51:57;;;;;;;11.70;2.92;;;12.00;89.70;;;;;;5034822;28;20041;-47
2022/03/09 12:54:28;;;;;;;11.93;2.63;;;12.00;89.40;;;;;;5034566;28;20099;-48
2022/03/09 12:56:55;;;;;;;11.75;2.60;;;12.00;89.40;;;;;;5036110;28;20452;-50
2022/03/09 12:59:21;;;;;;;170.60;19.65;;;12.00;90.10;;;;;;5033380;28;20037;-44
2022/03/09 13:01:48;;;;;;;76.70;9.02;;;12.00;89.80;;;;;;5034733;28;20037;-48
2022/03/09 13:04:15;;;;;;;11.88;2.67;;;12.00;89.40;;;;;;5034415;28;20116;-51
2022/03/09 13:06:42;;;;;;;13.52;2.58;;;12.10;88.70;;;;;;5034492;28;20121;-53
2022/03/09 13:09:09;;;;;;;9.95;3.28;;;12.00;88.20;;;;;;5031782;28;20052;-45
2022/03/09 13:11:36;;;;;;;11.52;2.50;;;12.00;88.80;;;;;;5027737;28;20132;-47
2022/03/09 13:14:03;;;;;;;14.23;2.60;;;12.00;89.20;;;;;;5028355;28;20065;-48
2022/03/09 13:16:29;;;;;;;105.63;13.32;;;11.90;89.60;;;;;;5033264;28;20041;-48
2022/03/09 13:18:56;;;;;;;19.08;3.83;;;11.90;89.60;;;;;;5033716;28;20049;-49
2022/03/09 13:21:23;;;;;;;19.33;3.67;;;11.90;89.00;;;;;;5033849;28;20037;-50
2022/03/09 13:23:50;;;;;;;15.52;3.50;;;11.90;89.60;;;;;;5033903;28;20041;-48
2022/03/09 13:26:17;;;;;;;84.25;11.38;;;11.80;88.90;;;;;;5039828;28;20103;-49
2022/03/09 13:28:43;;;;;;;16.75;4.00;;;11.80;89.80;;;;;;5029291;28;20048;-53
2022/03/09 13:31:11;;;;;;;12.07;2.90;;;11.80;89.10;;;;;;5029543;28;20053;-52
2022/03/09 13:33:38;;;;;;;12.10;2.70;;;11.70;89.60;;;;;;5027838;28;20049;-51
2022/03/09 13:36:06;;;;;;;17.38;3.00;;;11.70;89.50;;;;;;5033487;28;20085;-53
2022/03/09 18:13:16;;;;;;;14.65;5.35;;;9.50;94.10;;;;;;5110394;27;20364;-49
2022/03/09 18:15:43;;;;;;;15.15;6.45;;;9.40;94.00;;;;;;5095790;28;20042;-50
2022/03/09 18:18:10;;;;;;;15.65;5.60;;;9.40;94.10;;;;;;5090303;28;20505;-49
2022/03/09 18:20:37;;;;;;;14.68;6.15;;;9.50;94.00;;;;;;5090592;28;20111;-49
2022/03/09 18:23:04;;;;;;;18.45;5.80;;;9.50;94.00;;;;;;5090690;28;20044;-50
2022/03/09 18:25:31;;;;;;;20.20;5.75;;;9.50;93.90;;;;;;5090540;28;20048;-49
2022/03/09 18:27:57;;;;;;;14.77;5.72;;;9.60;93.80;;;;;;5089302;28;20043;-48
2022/03/09 18:30:24;;;;;;;18.85;6.97;;;9.70;93.70;;;;;;5081632;28;20045;-45
2022/03/09 18:32:51;;;;;;;13.30;6.03;;;9.70;93.60;;;;;;5089753;28;20040;-51
2022/03/09 18:35:18;;;;;;;15.70;5.43;;;9.80;93.60;;;;;;5090036;28;20380;-49
2022/03/09 18:37:45;;;;;;;17.40;5.72;;;9.80;93.50;;;;;;5089884;28;20059;-49
2022/03/09 18:40:12;;;;;;;13.10;5.55;;;9.80;93.60;;;;;;5089630;28;20032;-52
2022/03/09 18:42:39;;;;;;;18.55;6.43;;;9.90;93.40;;;;;;5089735;28;20380;-50
2022/03/09 18:45:06;;;;;;;11.77;5.07;;;9.90;93.30;;;;;;5093419;28;20499;-49
2022/03/09 18:47:35;;;;;;;15.13;5.30;;;9.90;93.30;;;;;;5083580;28;20066;-50
2022/03/09 18:50:02;;;;;;;12.60;5.45;;;10.00;93.40;;;;;;5089617;28;20049;-48
2022/03/09 18:52:29;;;;;;;15.18;7.18;;;10.00;93.10;;;;;;5089489;28;20041;-52
2022/03/09 18:54:56;;;;;;;14.18;5.75;;;10.00;93.10;;;;;;5088517;28;20097;-50
2022/03/09 18:57:23;;;;;;;17.88;6.45;;;10.00;93.10;;;;;;5089602;28;20046;-51
2022/03/09 18:59:50;;;;;;;16.90;6.50;;;10.10;93.10;;;;;;5076236;28;20044;-50
2022/03/09 19:02:16;;;;;;;15.77;5.78;;;10.10;92.90;;;;;;5082812;28;20537;-48
2022/03/09 19:04:43;;;;;;;14.15;5.88;;;10.10;92.90;;;;;;5083015;28;20102;-49
2022/03/09 19:07:11;;;;;;;17.50;5.13;;;10.00;93.00;;;;;;5082938;28;20460;-47
2022/03/09 19:09:38;;;;;;;13.93;5.05;;;10.00;93.00;;;;;;5089378;28;20040;-51
2022/03/09 19:12:05;;;;;;;18.02;5.90;;;10.00;92.90;;;;;;5089152;28;20048;-50
2022/03/09 19:14:32;;;;;;;13.52;4.75;;;10.10;93.20;;;;;;5095570;28;20040;-54
2022/03/09 19:16:59;;;;;;;14.00;6.07;;;10.10;93.00;;;;;;5089302;28;20032;-51
2022/03/09 19:19:32;;;;;;;15.40;5.40;;;10.10;92.90;;;;;;5089264;28;20040;-46
2022/03/09 19:21:59;;;;;;;12.93;5.78;;;10.10;93.00;;;;;;5089272;28;20047;-52
2022/03/09 19:24:28;;;;;;;10.48;5.18;;;10.00;92.90;;;;;;5076626;28;20040;-47
2022/03/09 19:26:54;;;;;;;14.15;7.03;;;10.00;93.00;;;;;;5074061;28;20502;-49
2022/03/09 19:29:21;;;;;;;12.43;5.60;;;10.00;93.00;;;;;;5075311;28;20597;-48
2022/03/09 19:31:49;;;;;;;14.55;5.60;;;10.00;93.10;;;;;;5075205;28;20040;-46
2022/03/09 19:34:16;;;;;;;13.80;6.47;;;10.00;93.00;;;;;;5075431;28;20381;-52
2022/03/09 19:36:43;;;;;;;22.60;6.03;;;10.00;93.10;;;;;;5075463;28;20044;-47
2022/03/09 19:39:28;;;;;;;11.93;5.13;;;10.00;93.00;;;;;;5059960;28;20048;-49
2022/03/09 19:41:55;;;;;;;17.42;5.93;;;10.00;93.10;;;;;;5075189;28;20044;-47
2022/03/09 19:44:22;;;;;;;14.73;5.82;;;10.00;93.00;;;;;;5073034;28;20044;-51
2022/03/09 19:46:49;;;;;;;13.32;5.35;;;9.90;93.10;;;;;;5073541;28;20043;-48
2022/03/09 19:49:16;;;;;;;16.65;6.00;;;10.00;93.20;;;;;;5074586;28;20055;-50
2022/03/09 19:51:42;;;;;;;12.80;5.93;;;9.90;93.00;;;;;;5074576;28;20052;-46
2022/03/09 19:54:09;;;;;;;14.07;6.57;;;10.00;93.10;;;;;;5074545;28;20036;-49
2022/03/09 19:56:36;;;;;;;14.82;6.10;;;10.00;93.10;;;;;;5074702;28;20040;-52
2022/03/09 19:59:03;;;;;;;14.30;6.28;;;10.00;93.10;;;;;;5074662;28;20550;-48
2022/03/09 20:01:29;;;;;;;16.58;7.10;;;9.90;93.10;;;;;;5074277;28;20043;-51
2022/03/09 20:03:58;;;;;;;16.70;6.32;;;9.90;93.10;;;;;;5074560;28;20041;-50
2022/03/09 20:06:25;;;;;;;13.05;5.38;;;9.90;93.20;;;;;;5078215;28;20036;-48
2022/03/09 20:08:52;;;;;;;11.32;5.13;;;10.00;93.20;;;;;;5074383;28;20475;-51
2022/03/09 20:11:18;;;;;;;13.95;5.30;;;10.00;93.00;;;;;;5073820;28;20048;-48
2022/03/09 20:13:47;;;;;;;16.05;5.65;;;9.90;93.10;;;;;;5075268;28;20040;-50
2022/03/09 20:16:14;;;;;;;14.68;5.63;;;10.00;93.20;;;;;;5073123;28;20389;-51
2022/03/09 20:18:42;;;;;;;14.60;6.30;;;9.90;93.00;;;;;;5074096;28;20131;-50
2022/03/09 20:21:09;;;;;;;15.13;5.75;;;9.90;93.10;;;;;;5073660;28;20041;-48
2022/03/09 20:23:39;;;;;;;11.90;5.18;;;9.90;93.00;;;;;;5073961;28;20463;-48
2022/03/09 20:26:06;;;;;;;15.35;5.43;;;9.90;92.90;;;;;;5073570;28;20036;-50
2022/03/09 20:28:33;;;;;;;12.63;5.65;;;9.90;93.00;;;;;;5073800;28;20119;-45
2022/03/09 20:30:59;;;;;;;18.88;6.13;;;9.90;93.00;;;;;;5074078;28;20036;-45
2022/03/09 20:33:26;;;;;;;11.75;5.57;;;9.90;92.90;;;;;;5073893;28;20471;-48
2022/03/09 20:35:54;;;;;;;10.82;5.95;;;9.90;92.90;;;;;;5072742;28;20043;-47
2022/03/09 20:38:21;;;;;;;16.63;7.32;;;9.90;92.90;;;;;;5072755;28;20041;-51
2022/03/09 20:40:47;;;;;;;17.27;8.45;;;9.90;92.90;;;;;;5073670;28;20036;-45
2022/03/09 20:43:14;;;;;;;15.70;7.55;;;9.90;92.90;;;;;;5072354;28;20111;-48
2022/03/09 20:45:41;;;;;;;15.55;6.28;;;9.90;92.80;;;;;;5078106;28;20056;-53
2022/03/09 20:48:08;;;;;;;18.92;7.55;;;9.90;93.00;;;;;;5073491;28;20364;-45
2022/03/09 20:50:34;;;;;;;19.05;8.00;;;9.90;92.90;;;;;;5073465;28;20037;-49
2022/03/09 20:53:02;;;;;;;16.92;9.05;;;9.90;92.90;;;;;;5073424;28;20115;-46
2022/03/09 20:55:28;;;;;;;13.50;6.53;;;9.90;92.80;;;;;;5073121;28;20040;-45
2022/03/09 20:57:55;;;;;;;13.32;5.88;;;9.90;92.80;;;;;;5073339;28;20052;-46
2022/03/09 21:00:22;;;;;;;11.80;5.55;;;9.90;92.80;;;;;;5073115;28;20037;-52
2022/03/09 21:02:49;;;;;;;15.65;5.70;;;9.90;92.80;;;;;;5073033;28;20048;-47
2022/03/09 21:05:16;;;;;;;12.95;7.00;;;9.90;92.70;;;;;;5073342;28;20044;-47
2022/03/09 21:07:42;;;;;;;12.15;5.60;;;9.90;92.70;;;;;;5073025;28;20040;-47
2022/03/09 21:10:09;;;;;;;12.80;4.70;;;9.90;92.80;;;;;;5072781;28;20044;-52
2022/03/09 21:12:36;;;;;;;15.23;5.60;;;9.90;92.60;;;;;;5072929;28;20392;-47
2022/03/09 21:15:03;;;;;;;14.32;5.22;;;9.90;92.70;;;;;;5072468;28;20486;-52
2022/03/09 21:17:30;;;;;;;13.77;4.75;;;9.90;92.70;;;;;;5072939;28;20039;-51
2022/03/09 21:19:56;;;;;;;12.23;5.40;;;9.90;92.80;;;;;;5072078;28;20109;-48
2022/03/09 21:22:23;;;;;;;13.82;5.10;;;9.90;92.80;;;;;;5071296;28;20052;-48
2022/03/09 21:25:05;;;;;;;12.80;4.35;;;9.90;92.70;;;;;;5072863;28;20048;-52
2022/03/09 21:27:32;;;;;;;10.07;5.07;;;9.80;92.80;;;;;;5071664;28;20082;-49
2022/03/09 21:29:58;;;;;;;10.73;4.90;;;9.80;92.70;;;;;;5072624;28;20472;-51
2022/03/09 21:32:25;;;;;;;13.40;5.05;;;9.80;92.70;;;;;;5072777;28;20044;-56
2022/03/09 21:34:52;;;;;;;13.88;4.88;;;9.80;92.70;;;;;;5069921;28;20375;-51
2022/03/09 21:37:19;;;;;;;14.15;4.75;;;9.80;92.80;;;;;;5072881;28;20497;-46
2022/03/09 21:39:46;;;;;;;12.82;4.63;;;9.80;92.80;;;;;;5072840;28;20399;-50
2022/03/09 21:42:12;;;;;;;14.05;4.75;;;9.80;92.70;;;;;;5072746;28;20042;-50
2022/03/09 21:44:41;;;;;;;15.77;5.45;;;9.80;92.70;;;;;;5074904;28;20102;-50
2022/03/09 21:47:10;;;;;;;11.75;4.55;;;9.80;92.80;;;;;;5071524;28;20040;-48
2022/03/09 21:49:37;;;;;;;14.30;4.95;;;9.80;92.70;;;;;;5070673;28;20470;-53
2022/03/09 21:52:04;;;;;;;10.32;4.30;;;9.80;92.80;;;;;;5070173;28;20123;-51
2022/03/09 21:54:36;;;;;;;13.35;4.50;;;9.80;92.90;;;;;;5071075;28;20102;-48
2022/03/09 21:57:03;;;;;;;10.25;4.50;;;9.80;92.80;;;;;;5072534;28;20487;-48
2022/03/09 21:59:30;;;;;;;15.02;4.75;;;9.80;92.80;;;;;;5072579;28;20114;-46
2022/03/09 22:01:57;;;;;;;13.57;4.95;;;9.80;92.90;;;;;;5072283;28;20040;-47
2022/03/09 22:04:24;;;;;;;12.88;4.90;;;9.80;92.90;;;;;;5072561;28;20037;-48
2022/03/09 22:06:51;;;;;;;15.65;6.15;;;9.70;92.90;;;;;;5072585;28;20040;-46
2022/03/09 22:09:18;;;;;;;13.77;5.78;;;9.70;93.00;;;;;;5072311;28;20086;-47
2022/03/09 22:11:44;;;;;;;14.25;6.78;;;9.70;92.90;;;;;;5072423;28;20487;-50
2022/03/09 22:14:13;;;;;;;17.40;5.57;;;9.70;92.90;;;;;;5074164;28;20040;-50
2022/03/09 22:16:42;;;;;;;15.23;5.72;;;9.70;92.90;;;;;;5072195;28;20041;-47
2022/03/09 22:19:09;;;;;;;11.65;5.63;;;9.70;93.10;;;;;;5072321;28;20072;-50
2022/03/09 22:21:37;;;;;;;14.18;5.20;;;9.70;93.00;;;;;;5072311;28;20040;-49
2022/03/09 22:24:04;;;;;;;14.25;4.80;;;9.70;93.10;;;;;;5071060;28;20040;-53
2022/03/09 22:26:31;;;;;;;11.70;5.05;;;9.70;93.10;;;;;;5072407;28;20059;-49
2022/03/09 22:28:58;;;;;;;11.68;4.93;;;9.60;93.10;;;;;;5072222;28;20048;-51
2022/03/09 22:31:24;;;;;;;12.60;4.95;;;9.60;93.20;;;;;;5072514;28;20063;-49
2022/03/09 22:33:51;;;;;;;12.57;5.05;;;9.60;93.20;;;;;;5072454;28;20491;-49
2022/03/09 22:36:18;;;;;;;14.63;5.40;;;9.60;93.30;;;;;;5072059;28;20037;-46
2022/03/09 22:38:45;;;;;;;11.15;4.75;;;9.60;93.30;;;;;;5072342;28;20052;-45
2022/03/09 22:41:13;;;;;;;12.52;5.72;;;9.60;93.30;;;;;;5072350;28;20098;-51
2022/03/09 22:43:40;;;;;;;11.13;4.95;;;9.60;93.30;;;;;;5072382;28;20445;-49
2022/03/09 22:46:06;;;;;;;10.30;4.75;;;9.60;93.30;;;;;;5070983;28;20434;-44
2022/03/09 22:48:34;;;;;;;9.35;4.50;;;9.60;93.30;;;;;;5072194;28;20155;-51
2022/03/09 22:51:00;;;;;;;13.85;5.35;;;9.60;93.30;;;;;;5071939;28;20036;-47
2022/03/09 22:53:27;;;;;;;13.48;5.43;;;9.50;93.30;;;;;;5074183;28;20037;-47
2022/03/09 22:55:54;;;;;;;10.55;4.82;;;9.50;93.30;;;;;;5072120;28;20043;-49
2022/03/09 22:58:23;;;;;;;10.10;4.43;;;9.50;93.40;;;;;;5072859;28;20041;-52
2022/03/09 23:00:50;;;;;;;12.00;5.07;;;9.50;93.40;;;;;;5075933;28;20476;-49
2022/03/09 23:03:20;;;;;;;10.38;4.50;;;9.50;93.40;;;;;;5075783;28;20408;-52
2022/03/09 23:05:47;;;;;;;14.25;5.18;;;9.40;93.40;;;;;;5075782;28;20045;-50
2022/03/09 23:08:14;;;;;;;9.30;4.60;;;9.40;93.50;;;;;;5075747;28;20047;-48
2022/03/09 23:10:40;;;;;;;12.13;5.25;;;9.40;93.50;;;;;;5075673;28;20048;-53
2022/03/09 23:13:07;;;;;;;10.93;5.18;;;9.40;93.50;;;;;;5075395;28;20147;-52
2022/03/09 23:15:34;;;;;;;9.93;4.93;;;9.40;93.60;;;;;;5075319;28;20074;-53
2022/03/09 23:18:01;;;;;;;13.88;5.22;;;9.30;93.60;;;;;;5075573;28;20111;-55
2022/03/09 23:20:28;;;;;;;11.18;4.82;;;9.30;93.60;;;;;;5075495;28;20041;-48
2022/03/09 23:22:55;;;;;;;9.98;4.75;;;9.30;93.70;;;;;;5075100;28;20457;-48
2022/03/09 23:25:21;;;;;;;11.40;5.20;;;9.30;93.70;;;;;;5075552;28;20067;-51
2022/03/09 23:27:48;;;;;;;11.20;5.28;;;9.30;93.80;;;;;;5074177;28;20060;-50
2022/03/09 23:30:15;;;;;;;11.30;5.18;;;9.20;93.70;;;;;;5075352;28;20041;-49
2022/03/09 23:32:42;;;;;;;8.23;4.95;;;9.30;93.70;;;;;;5075145;28;20051;-50
2022/03/09 23:35:10;;;;;;;13.80;5.35;;;9.30;93.70;;;;;;5075340;28;20094;-52
2022/03/09 23:37:37;;;;;;;8.38;6.55;;;9.30;93.60;;;;;;5075366;28;20051;-53
